createdAt,value
2018-12-09T00:04:30.079Z,6.35
2018-12-09T00:10:25.064Z,5.23
2018-12-09T00:16:20.103Z,4.36
2018-12-09T00:22:15.087Z,5.45
2018-12-09T00:28:10.090Z,3.26
2018-12-09T00:34:05.088Z,3.71
2018-12-09T00:40:00.129Z,4.07
2018-12-09T00:45:55.123Z,4.12
2018-12-09T00:51:50.117Z,5.17
2018-12-09T00:57:45.098Z,4.71
2018-12-09T01:03:40.093Z,3.93
2018-12-09T01:09:35.122Z,4.65
2018-12-09T01:15:30.107Z,3.87
2018-12-09T01:21:25.109Z,3.5
2018-12-09T01:27:20.130Z,3.73
2018-12-09T01:33:15.157Z,4.41
2018-12-09T01:39:10.113Z,4.76
2018-12-09T01:45:05.154Z,5.73
2018-12-09T01:51:00.121Z,5.03
2018-12-09T01:56:55.135Z,4.6
2018-12-09T02:02:50.141Z,5.76
2018-12-09T02:08:45.134Z,7.16
2018-12-09T02:14:40.121Z,6.29
2018-12-09T02:20:35.163Z,5.83
2018-12-09T02:26:30.164Z,5.8
2018-12-09T02:32:25.209Z,5.36
2018-12-09T02:38:20.181Z,6.18
2018-12-09T02:44:15.165Z,6.33
2018-12-09T02:50:10.137Z,5.58
2018-12-09T02:56:05.160Z,6.72
2018-12-09T03:02:00.152Z,7.02
2018-12-09T03:07:55.141Z,5.57
2018-12-09T03:13:50.213Z,7.71
2018-12-09T03:19:45.175Z,5.93
2018-12-09T03:25:40.168Z,6.27
2018-12-09T03:31:35.185Z,5.8
2018-12-09T03:37:30.183Z,5.62
2018-12-09T03:43:25.167Z,5.87
2018-12-09T03:49:20.206Z,5.46
2018-12-09T03:55:15.197Z,6.06
2018-12-09T04:01:10.184Z,5.94
2018-12-09T04:07:05.198Z,6.47
2018-12-09T04:13:00.208Z,5.24
2018-12-09T04:18:55.197Z,7.93
2018-12-09T04:24:50.234Z,7.47
2018-12-09T04:30:45.201Z,7.55
2018-12-09T04:36:40.219Z,7.91
2018-12-09T04:42:35.254Z,7.5
2018-12-09T04:48:30.214Z,8.59
2018-12-09T04:54:25.278Z,7.78
2018-12-09T05:00:20.224Z,8.13
2018-12-09T05:06:15.213Z,8.29
2018-12-09T05:12:10.258Z,8.03
2018-12-09T05:18:05.274Z,8.41
2018-12-09T05:24:00.223Z,8.64
2018-12-09T05:29:55.275Z,8.92
2018-12-09T05:35:50.232Z,8.58
2018-12-09T05:41:45.281Z,8.89
2018-12-09T05:47:40.226Z,9.19
2018-12-09T05:53:35.318Z,9.65
2018-12-09T05:59:30.240Z,9.35
2018-12-09T06:05:25.252Z,8.95
2018-12-09T06:11:20.298Z,9.18
2018-12-09T06:17:15.250Z,9.83
2018-12-09T06:23:10.259Z,9.55
2018-12-09T06:29:05.307Z,9.43
2018-12-09T06:35:00.303Z,10.66
2018-12-09T06:40:55.259Z,10.4
2018-12-09T06:46:50.297Z,10.47
2018-12-09T06:52:45.251Z,10.18
2018-12-09T06:58:40.281Z,10.37
2018-12-09T07:04:35.260Z,10.45
2018-12-09T07:10:30.254Z,9.04
2018-12-09T07:16:25.279Z,10.21
2018-12-09T07:22:20.258Z,10.59
2018-12-09T07:28:15.326Z,11.39
2018-12-09T07:34:10.268Z,11.43
2018-12-09T07:40:05.303Z,13.11
2018-12-09T07:46:00.263Z,11.73
2018-12-09T07:51:55.325Z,12.48
2018-12-09T07:57:50.297Z,12.09
2018-12-09T08:03:45.316Z,13.98
2018-12-09T08:09:40.350Z,11.36
2018-12-09T08:15:35.303Z,13.38
2018-12-09T08:21:30.334Z,13.13
2018-12-09T08:27:25.305Z,14.81
2018-12-09T08:33:20.298Z,17.21
2018-12-09T08:39:15.335Z,17.11
2018-12-09T08:45:10.332Z,15.53
2018-12-09T08:51:05.300Z,16.05
2018-12-09T08:57:00.315Z,22.8
2018-12-09T09:02:55.332Z,35.45
2018-12-09T09:08:50.320Z,40.13
2018-12-09T09:14:45.381Z,42.08
2018-12-09T09:20:40.337Z,39.75
2018-12-09T09:26:35.347Z,53.84
2018-12-09T09:32:30.349Z,38.53
2018-12-09T09:38:25.342Z,32.32
2018-12-09T09:44:20.387Z,35.08
2018-12-09T09:56:10.375Z,36.98
2018-12-09T09:56:10.375Z,41.07
2018-12-09T10:02:05.324Z,30.84
2018-12-09T10:08:00.359Z,33.45
2018-12-09T10:13:55.371Z,62.44
2018-12-09T10:19:50.361Z,50.89
2018-12-09T10:25:45.353Z,42.34
2018-12-09T10:37:35.381Z,39.15
2018-12-09T10:37:35.413Z,43.96
2018-12-09T10:43:30.384Z,30.98
2018-12-09T10:49:30.594Z,32.98
2018-12-09T10:55:20.393Z,24.01
2018-12-09T11:19:02.500Z,51.37
2018-12-09T11:24:55.961Z,35.82
2018-12-09T11:30:55.445Z,28.61
2018-12-09T11:36:45.463Z,20.54
2018-12-09T11:42:40.410Z,34.52
2018-12-09T11:48:35.409Z,35.84
2018-12-09T11:54:30.420Z,48.89
2018-12-09T12:00:25.439Z,37.6
2018-12-09T12:06:20.430Z,33.89
2018-12-09T12:12:15.437Z,38.11
2018-12-09T12:18:10.446Z,23.77
2018-12-09T12:24:05.435Z,59.59
2018-12-09T12:30:00.530Z,41.23
2018-12-09T12:35:55.465Z,27.48
2018-12-09T12:41:50.466Z,15.45
2018-12-09T12:47:45.475Z,16.86
2018-12-09T12:53:40.459Z,25.3
2018-12-09T12:59:35.454Z,13.07
2018-12-09T13:05:30.455Z,30.55
2018-12-09T13:11:25.492Z,19.99
2018-12-09T13:17:22.470Z,16.96
2018-12-09T13:23:15.940Z,17.34
2018-12-09T13:41:00.496Z,22.23
2018-12-09T13:41:02.703Z,24.8
2018-12-09T13:41:02.715Z,24.8
2018-12-09T13:52:50.491Z,21.81
2018-12-09T13:52:50.530Z,19.09
2018-12-09T13:58:45.503Z,19.13
2018-12-09T14:04:40.518Z,20.11
2018-12-09T14:10:35.484Z,22.4
2018-12-09T14:16:30.511Z,18.19
2018-12-09T14:22:25.532Z,13.09
2018-12-09T14:28:20.501Z,11.39
2018-12-09T14:34:15.516Z,11.32
2018-12-09T14:40:10.524Z,8.41
2018-12-09T14:46:05.509Z,13.51
2018-12-09T14:52:00.538Z,15.35
2018-12-09T14:57:55.514Z,11.07
2018-12-09T15:03:50.567Z,8.03
2018-12-09T15:09:45.535Z,12.4
2018-12-09T15:15:40.668Z,10.34
2018-12-09T15:21:35.546Z,9.48
2018-12-09T15:27:30.549Z,7.96
2018-12-09T15:33:25.562Z,8.71
2018-12-09T15:39:20.542Z,23.12
2018-12-09T15:45:15.549Z,21.81
2018-12-09T15:51:10.558Z,15.21
2018-12-09T15:57:05.643Z,14.7
2018-12-09T16:03:00.580Z,13.94
2018-12-09T16:08:55.591Z,17.32
2018-12-09T16:14:50.574Z,12.84
2018-12-09T16:20:45.587Z,16.6
2018-12-09T16:26:40.599Z,10.41
2018-12-09T16:32:35.602Z,16.91
2018-12-09T16:38:30.581Z,12.01
2018-12-09T16:44:25.586Z,8.86
2018-12-09T16:50:20.635Z,22.7
2018-12-09T16:56:15.604Z,8.17
2018-12-09T17:02:10.660Z,13.09
2018-12-09T17:08:05.622Z,12.21
2018-12-09T17:14:00.636Z,14.21
2018-12-09T17:19:55.609Z,15.93
2018-12-09T17:25:50.831Z,10.93
2018-12-09T17:31:45.629Z,11.95
2018-12-09T17:37:40.646Z,14.31
2018-12-09T17:43:35.638Z,12.58
2018-12-09T17:49:30.640Z,6.08
2018-12-09T17:55:25.636Z,4.97
2018-12-09T18:01:20.799Z,3.89
2018-12-09T18:07:15.664Z,4.17
2018-12-09T18:13:10.656Z,13.82
2018-12-09T18:19:05.695Z,14.64
2018-12-09T18:25:00.737Z,20.51
2018-12-09T18:30:55.677Z,22.75
2018-12-09T18:36:50.691Z,13.49
2018-12-09T18:42:45.700Z,10.3
2018-12-09T18:48:40.660Z,11.66
2018-12-09T18:54:35.664Z,18.46
2018-12-09T19:00:30.692Z,18.31
2018-12-09T19:06:25.707Z,39.97
2018-12-09T19:12:20.655Z,29.45
2018-12-09T19:18:15.703Z,41.75
2018-12-09T19:24:10.673Z,24.73
2018-12-09T19:30:05.695Z,18.69
2018-12-09T19:36:00.729Z,12.14
2018-12-09T19:41:55.724Z,9.46
2018-12-09T19:47:50.703Z,13.22
2018-12-09T19:53:45.721Z,10.56
2018-12-09T19:59:40.731Z,11.51
2018-12-09T20:05:35.698Z,9.82
2018-12-09T20:11:30.719Z,7.91
2018-12-09T20:17:25.714Z,5.6
2018-12-09T20:23:20.698Z,6.47
2018-12-09T20:29:15.719Z,6.55
2018-12-09T20:35:10.754Z,9.17
2018-12-09T20:41:05.760Z,10.06
2018-12-09T20:47:00.762Z,7.65
2018-12-09T20:52:55.768Z,32.47
2018-12-09T20:58:50.740Z,23.5
2018-12-09T21:04:45.751Z,32.16
2018-12-09T21:10:40.767Z,30.72
2018-12-09T21:16:35.754Z,19.64
2018-12-09T21:22:30.740Z,27.8
2018-12-09T21:28:25.739Z,23.91
2018-12-09T21:34:20.771Z,20.9
2018-12-09T21:40:15.755Z,22.29
2018-12-09T21:46:10.806Z,18.71
2018-12-09T21:52:05.747Z,12.84
2018-12-09T21:58:00.756Z,13.37
2018-12-09T22:03:55.802Z,9.31
2018-12-09T22:09:50.859Z,7.68
2018-12-09T22:15:45.766Z,7.36
2018-12-09T22:21:40.772Z,11.83
2018-12-09T22:27:35.799Z,22.75
2018-12-09T22:33:30.776Z,25.09
2018-12-09T22:39:25.777Z,29.79
2018-12-09T22:45:20.781Z,25.42
2018-12-09T22:51:15.791Z,19.36
2018-12-09T22:57:10.827Z,17.97
2018-12-09T23:03:05.809Z,12.84
2018-12-09T23:09:00.811Z,19.34
2018-12-09T23:14:55.819Z,14.95
2018-12-09T23:20:50.796Z,17.09
2018-12-09T23:26:45.852Z,7.92
2018-12-09T23:32:40.808Z,6.39
2018-12-09T23:38:35.803Z,6.13
2018-12-09T23:44:30.848Z,6.05
2018-12-09T23:50:25.879Z,4.93
2018-12-09T23:56:20.839Z,8.27
